createdAt,value
2022-09-23T00:01:19.318Z,8.38
2022-09-23T00:03:47.240Z,6.32
2022-09-23T00:06:24.141Z,8.23
2022-09-23T00:08:52.509Z,6.85
2022-09-23T00:11:25.446Z,8.43
2022-09-23T00:13:55.253Z,9.50
2022-09-23T00:16:34.320Z,8.63
2022-09-23T00:19:02.921Z,8.60
2022-09-23T00:21:29.878Z,5.82
2022-09-23T00:23:56.943Z,11.77
2022-09-23T00:26:29.062Z,13.27
2022-09-23T00:28:56.183Z,9.90
2022-09-23T00:31:26.222Z,5.28
2022-09-23T00:34:01.270Z,7.80
2022-09-23T00:36:30.135Z,7.68
2022-09-23T00:38:57.009Z,7.15
2022-09-23T00:41:24.667Z,8.68
2022-09-23T00:44:00.126Z,8.70
2022-09-23T00:46:35.791Z,8.88
2022-09-23T00:49:28.873Z,7.47
2022-09-23T00:52:02.581Z,7.50
2022-09-23T00:54:29.865Z,8.48
2022-09-23T00:56:59.752Z,9.65
2022-09-23T00:59:29.195Z,13.00
2022-09-23T01:01:58.023Z,8.50
2022-09-23T01:04:28.230Z,10.55
2022-09-23T01:06:55.276Z,12.43
2022-09-23T01:09:23.380Z,7.78
2022-09-23T01:11:57.903Z,9.35
2022-09-23T01:14:48.585Z,7.07
2022-09-23T01:17:18.631Z,10.00
2022-09-23T01:20:24.841Z,11.35
2022-09-23T01:23:07.057Z,9.85
2022-09-23T01:26:01.441Z,8.55
2022-09-23T01:29:16.315Z,5.97
2022-09-23T01:31:57.689Z,9.98
2022-09-23T01:34:51.089Z,10.13
2022-09-23T01:37:42.733Z,7.78
2022-09-23T01:40:29.841Z,8.10
2022-09-23T01:43:44.539Z,8.85
2022-09-23T01:46:25.750Z,11.65
2022-09-23T01:49:02.919Z,10.48
2022-09-23T01:51:38.310Z,8.30
2022-09-23T01:54:22.512Z,9.93
2022-09-23T01:56:54.640Z,10.63
2022-09-23T01:59:31.305Z,10.38
2022-09-23T02:02:15.341Z,11.73
2022-09-23T02:05:18.938Z,11.20
2022-09-23T02:08:00.730Z,10.52
2022-09-23T02:10:44.225Z,13.27
2022-09-23T02:13:31.465Z,8.90
2022-09-23T02:16:03.459Z,14.55
2022-09-23T02:18:38.343Z,9.15
2022-09-23T02:21:08.690Z,10.63
2022-09-23T02:23:46.002Z,8.02
2022-09-23T02:26:27.737Z,11.63
2022-09-23T02:29:11.060Z,10.60
2022-09-23T02:31:44.034Z,8.32
2022-09-23T02:34:43.009Z,12.73
2022-09-23T02:37:27.269Z,15.02
2022-09-23T02:40:48.295Z,11.75
2022-09-23T02:43:28.171Z,12.25
2022-09-23T02:45:56.166Z,15.50
2022-09-23T02:48:51.219Z,12.48
2022-09-23T02:51:17.981Z,9.13
2022-09-23T02:53:45.896Z,9.20
2022-09-23T02:56:21.095Z,11.88
2022-09-23T02:58:54.407Z,11.57
2022-09-23T03:01:33.053Z,10.05
2022-09-23T03:04:18.511Z,18.80
2022-09-23T03:07:13.849Z,12.40
2022-09-23T03:09:52.969Z,9.82
2022-09-23T03:12:36.177Z,14.40
2022-09-23T03:15:26.909Z,13.02
2022-09-23T03:18:21.491Z,13.23
2022-09-23T03:21:05.750Z,12.27
2022-09-23T03:23:38.438Z,17.05
2022-09-23T03:26:12.368Z,13.98
2022-09-23T03:28:43.692Z,18.20
2022-09-23T03:31:13.062Z,13.35
2022-09-23T03:33:45.538Z,12.73
2022-09-23T03:36:34.932Z,19.13
2022-09-23T03:39:12.893Z,16.15
2022-09-23T03:41:50.950Z,13.52
2022-09-23T03:44:19.480Z,11.73
2022-09-23T03:46:49.998Z,13.80
2022-09-23T03:49:27.403Z,15.52
2022-09-23T03:51:55.184Z,12.10
2022-09-23T03:54:22.150Z,16.50
2022-09-23T03:56:49.060Z,13.95
2022-09-23T03:59:16.950Z,16.75
2022-09-23T04:01:44.666Z,14.27
2022-09-23T04:04:11.539Z,14.85
2022-09-23T04:06:38.494Z,12.95
2022-09-23T04:09:05.260Z,13.07
2022-09-23T04:11:32.093Z,13.63
2022-09-23T04:13:58.898Z,14.82
2022-09-23T04:16:26.024Z,14.70
2022-09-23T04:18:53.208Z,20.88
2022-09-23T04:21:20.037Z,13.23
2022-09-23T04:23:47.135Z,18.65
2022-09-23T04:26:14.652Z,14.45
2022-09-23T04:28:41.458Z,14.35
2022-09-23T04:31:09.953Z,17.55
2022-09-23T04:33:37.625Z,22.80
2022-09-23T04:36:04.726Z,16.40
2022-09-23T04:38:31.624Z,26.35
2022-09-23T04:40:58.868Z,20.85
2022-09-23T04:43:25.818Z,14.25
2022-09-23T04:46:04.952Z,21.10
2022-09-23T04:48:32.598Z,15.13
2022-09-23T04:51:11.862Z,16.88
2022-09-23T04:53:41.551Z,17.25
2022-09-23T04:56:11.687Z,18.20
2022-09-23T04:58:39.839Z,14.77
2022-09-23T05:01:19.317Z,17.17
2022-09-23T05:03:46.942Z,22.27
2022-09-23T05:06:15.326Z,19.10
2022-09-23T05:08:47.510Z,13.27
2022-09-23T05:11:14.473Z,19.05
2022-09-23T05:13:41.336Z,18.42
2022-09-23T05:16:11.006Z,20.80
2022-09-23T05:18:44.078Z,12.98
2022-09-23T05:21:16.802Z,18.48
2022-09-23T05:23:55.419Z,18.92
2022-09-23T05:26:28.204Z,21.98
2022-09-23T05:28:55.529Z,14.65
2022-09-23T05:31:24.209Z,19.05
2022-09-23T05:33:53.411Z,15.80
2022-09-23T05:36:21.966Z,27.63
2022-09-23T05:38:50.897Z,17.73
2022-09-23T05:41:20.479Z,18.48
2022-09-23T05:43:47.580Z,16.65
2022-09-23T05:46:23.481Z,16.05
2022-09-23T05:48:51.136Z,14.75
2022-09-23T05:51:25.475Z,18.42
2022-09-23T05:53:56.213Z,18.48
2022-09-23T05:56:25.479Z,14.98
2022-09-23T05:58:54.104Z,21.77
2022-09-23T06:01:26.383Z,15.68
2022-09-23T06:03:55.167Z,16.30
2022-09-23T06:06:30.490Z,17.00
2022-09-23T06:09:01.028Z,11.63
2022-09-23T06:11:31.015Z,19.13
2022-09-23T06:14:01.170Z,18.50
2022-09-23T06:16:30.563Z,19.00
2022-09-23T06:18:59.686Z,16.83
2022-09-23T06:21:30.899Z,13.45
2022-09-23T06:24:02.857Z,19.50
2022-09-23T06:26:32.672Z,20.13
2022-09-23T06:29:01.711Z,15.00
2022-09-23T06:31:29.303Z,16.23
2022-09-23T06:34:08.223Z,20.42
2022-09-23T06:36:43.792Z,14.88
2022-09-23T06:39:11.426Z,12.73
2022-09-23T06:41:39.268Z,13.43
2022-09-23T06:44:06.373Z,14.93
2022-09-23T06:46:33.718Z,13.52
2022-09-23T06:49:02.186Z,21.60
2022-09-23T06:51:28.953Z,23.95
2022-09-23T06:53:56.111Z,18.60
2022-09-23T06:56:23.704Z,24.08
2022-09-23T06:58:52.718Z,21.55
2022-09-23T07:01:20.291Z,21.45
2022-09-23T07:03:48.538Z,27.02
2022-09-23T07:06:15.964Z,19.83
2022-09-23T07:08:44.982Z,26.95
2022-09-23T07:11:13.509Z,27.73
2022-09-23T07:13:42.023Z,21.23
2022-09-23T07:16:10.867Z,32.20
2022-09-23T07:18:38.926Z,28.92
2022-09-23T07:21:17.615Z,27.48
2022-09-23T07:23:50.217Z,17.92
2022-09-23T07:26:19.801Z,25.73
2022-09-23T07:28:46.748Z,29.10
2022-09-23T07:31:17.249Z,22.80
2022-09-23T07:33:46.332Z,21.00
2022-09-23T07:36:17.356Z,29.83
2022-09-23T07:38:45.930Z,30.17
2022-09-23T07:41:16.131Z,25.35
2022-09-23T07:43:44.131Z,23.30
2022-09-23T07:46:16.852Z,30.10
2022-09-23T07:48:45.075Z,21.73
2022-09-23T07:51:16.809Z,26.60
2022-09-23T07:53:48.450Z,23.33
2022-09-23T07:56:15.930Z,29.88
2022-09-23T07:58:43.119Z,27.85
2022-09-23T08:01:12.062Z,27.65
2022-09-23T08:03:39.983Z,20.55
2022-09-23T08:06:14.454Z,22.00
2022-09-23T08:08:44.905Z,25.95
2022-09-23T08:11:14.424Z,25.20
2022-09-23T08:13:43.618Z,30.80
2022-09-23T08:16:11.621Z,28.60
2022-09-23T08:18:38.667Z,28.08
2022-09-23T08:21:05.820Z,23.45
2022-09-23T08:23:34.043Z,26.40
2022-09-23T08:26:05.505Z,22.70
2022-09-23T08:28:34.148Z,25.23
2022-09-23T08:31:01.346Z,21.27
2022-09-23T08:33:29.599Z,20.27
2022-09-23T08:36:01.596Z,13.27
2022-09-23T08:38:29.559Z,18.95
2022-09-23T08:41:05.750Z,16.17
2022-09-23T08:43:37.348Z,14.13
2022-09-23T08:46:08.331Z,15.38
2022-09-23T08:48:47.501Z,15.43
2022-09-23T08:51:33.875Z,21.70
2022-09-23T08:54:01.165Z,16.58
2022-09-23T08:56:30.453Z,12.02
2022-09-23T08:59:15.196Z,22.20
2022-09-23T09:01:47.923Z,15.70
2022-09-23T09:04:32.660Z,15.68
2022-09-23T09:07:24.518Z,16.35
2022-09-23T09:10:18.723Z,15.27
2022-09-23T09:13:14.397Z,20.58
2022-09-23T09:15:48.222Z,19.33
2022-09-23T09:18:24.266Z,21.60
2022-09-23T09:21:09.270Z,14.30
2022-09-23T09:23:52.399Z,14.80
2022-09-23T09:26:27.852Z,24.45
2022-09-23T09:29:33.780Z,19.70
2022-09-23T09:32:12.360Z,14.80
2022-09-23T09:34:45.826Z,24.48
2022-09-23T09:37:33.697Z,18.83
2022-09-23T09:40:00.965Z,20.88
2022-09-23T09:42:40.008Z,24.73
2022-09-23T09:45:38.677Z,19.30
2022-09-23T09:48:28.456Z,16.98
2022-09-23T09:50:56.006Z,19.77
2022-09-23T09:53:30.732Z,18.95
2022-09-23T09:56:10.621Z,20.05
2022-09-23T09:58:51.789Z,18.52
2022-09-23T10:01:33.393Z,20.58
2022-09-23T10:04:21.861Z,18.88
2022-09-23T10:07:09.429Z,13.73
2022-09-23T10:09:38.744Z,14.77
2022-09-23T10:12:18.788Z,16.20
2022-09-23T10:14:50.654Z,15.63
2022-09-23T10:17:32.462Z,14.75
2022-09-23T10:20:02.330Z,15.85
2022-09-23T10:22:36.486Z,10.95
2022-09-23T10:25:08.853Z,11.57
2022-09-23T10:27:38.858Z,15.68
2022-09-23T10:30:21.670Z,11.20
2022-09-23T10:32:50.134Z,10.60
2022-09-23T10:35:24.551Z,13.70
2022-09-23T10:37:56.890Z,13.63
2022-09-23T10:40:49.101Z,14.18
2022-09-23T10:43:47.117Z,11.18
2022-09-23T10:46:38.903Z,12.95
2022-09-23T10:49:35.753Z,15.75
2022-09-23T10:52:20.460Z,12.98
2022-09-23T10:55:20.140Z,10.10
2022-09-23T10:58:04.357Z,10.82
2022-09-23T11:00:47.095Z,10.93
2022-09-23T11:03:43.306Z,12.90
2022-09-23T11:06:33.489Z,11.68
2022-09-23T11:09:27.771Z,15.13
2022-09-23T11:12:01.059Z,14.48
2022-09-23T11:14:52.772Z,13.40
2022-09-23T11:17:29.096Z,17.17
2022-09-23T11:20:27.197Z,12.35
2022-09-23T11:23:07.772Z,15.15
2022-09-23T11:26:02.087Z,12.57
2022-09-23T11:28:40.796Z,15.98
2022-09-23T11:31:49.462Z,9.32
2022-09-23T11:34:52.541Z,17.73
2022-09-23T11:37:27.283Z,43.70
2022-09-23T11:40:19.120Z,14.30
2022-09-23T11:42:55.920Z,13.77
2022-09-23T11:45:32.392Z,13.18
2022-09-23T11:48:06.024Z,13.13
2022-09-23T11:50:36.462Z,13.05
2022-09-23T11:53:18.293Z,13.20
2022-09-23T11:56:07.458Z,10.88
2022-09-23T11:58:59.866Z,12.38
2022-09-23T12:01:37.907Z,13.80
2022-09-23T12:04:33.548Z,14.38
2022-09-23T12:07:24.220Z,13.88
2022-09-23T12:10:07.720Z,12.93
2022-09-23T12:12:53.008Z,15.27
2022-09-23T12:15:22.783Z,13.02
2022-09-23T12:18:10.598Z,12.57
2022-09-23T12:21:33.025Z,11.52
2022-09-23T12:24:19.263Z,11.68
2022-09-23T12:26:51.966Z,12.80
2022-09-23T12:29:19.337Z,12.60
2022-09-23T12:31:46.860Z,10.13
2022-09-23T12:34:25.104Z,13.77
2022-09-23T12:36:52.386Z,14.75
2022-09-23T12:39:28.831Z,10.05
2022-09-23T12:42:02.358Z,10.75
2022-09-23T12:44:49.112Z,15.30
2022-09-23T12:47:21.298Z,12.70
2022-09-23T12:49:50.852Z,10.63
2022-09-23T12:52:17.661Z,12.77
2022-09-23T12:54:47.272Z,11.32
2022-09-23T12:57:34.673Z,13.15
2022-09-23T13:00:12.225Z,14.40
2022-09-23T13:02:44.483Z,12.77
2022-09-23T13:05:44.684Z,12.98
2022-09-23T13:08:20.700Z,15.13
2022-09-23T13:10:50.289Z,11.55
2022-09-23T13:13:31.921Z,17.45
2022-09-23T13:16:20.147Z,16.70
2022-09-23T13:18:54.773Z,14.98
2022-09-23T13:22:02.194Z,9.05
2022-09-23T13:24:52.230Z,12.23
2022-09-23T13:27:22.389Z,13.52
2022-09-23T13:30:19.301Z,10.60
2022-09-23T13:33:01.485Z,15.95
2022-09-23T13:35:36.837Z,8.60
2022-09-23T13:38:11.990Z,9.13
2022-09-23T13:40:41.820Z,14.77
2022-09-23T13:43:26.910Z,11.55
2022-09-23T13:45:54.110Z,9.77
2022-09-23T13:48:25.501Z,7.68
2022-09-23T13:50:56.187Z,15.95
2022-09-23T13:53:31.474Z,6.80
2022-09-23T13:56:02.653Z,15.02
2022-09-23T13:58:31.921Z,8.68
2022-09-23T14:00:59.339Z,8.95
2022-09-23T14:03:36.506Z,12.75
2022-09-23T14:06:12.985Z,10.77
2022-09-23T14:08:43.945Z,9.88
2022-09-23T14:11:19.471Z,9.85
2022-09-23T14:13:49.690Z,12.93
2022-09-23T14:16:20.930Z,13.82
2022-09-23T14:18:51.655Z,13.35
2022-09-23T14:21:48.048Z,9.13
2022-09-23T14:24:30.096Z,12.80
2022-09-23T14:27:07.812Z,15.27
2022-09-23T14:29:40.685Z,14.85
2022-09-23T14:32:17.299Z,26.73
2022-09-23T14:34:44.112Z,16.13
2022-09-23T14:37:58.542Z,17.30
2022-09-23T14:40:30.253Z,21.90
2022-09-23T14:43:02.393Z,17.02
2022-09-23T14:45:36.266Z,18.30
2022-09-23T14:48:08.295Z,14.80
2022-09-23T14:50:48.669Z,53.88
2022-09-23T14:53:23.941Z,20.38
2022-09-23T14:56:16.066Z,21.45
2022-09-23T14:58:58.835Z,35.10
2022-09-23T15:01:31.271Z,19.95
2022-09-23T15:04:16.975Z,23.42
2022-09-23T15:06:52.828Z,28.10
2022-09-23T15:09:40.705Z,19.48
2022-09-23T15:12:14.523Z,19.02
2022-09-23T15:14:46.559Z,15.68
2022-09-23T15:17:23.262Z,19.13
2022-09-23T15:19:56.933Z,22.33
2022-09-23T15:22:27.349Z,14.75
2022-09-23T15:25:08.537Z,15.80
2022-09-23T15:27:36.320Z,15.55
2022-09-23T15:30:15.801Z,16.42
2022-09-23T15:32:46.508Z,17.70
2022-09-23T15:35:19.215Z,17.17
2022-09-23T15:37:48.285Z,13.68
2022-09-23T15:40:23.101Z,19.48
2022-09-23T15:42:52.899Z,18.50
2022-09-23T15:45:33.290Z,12.15
2022-09-23T15:48:08.191Z,18.10
2022-09-23T15:50:36.891Z,20.13
2022-09-23T15:53:04.772Z,13.18
2022-09-23T15:55:32.060Z,13.65
2022-09-23T15:57:59.637Z,16.27
2022-09-23T16:00:26.834Z,16.83
2022-09-23T16:02:54.158Z,15.15
2022-09-23T16:05:39.100Z,12.98
2022-09-23T16:08:09.648Z,15.80
2022-09-23T16:10:37.829Z,19.13
2022-09-23T16:13:08.979Z,13.95
2022-09-23T16:15:36.357Z,10.82
2022-09-23T16:18:03.266Z,13.32
2022-09-23T16:20:30.402Z,12.18
2022-09-23T16:23:00.364Z,10.07
2022-09-23T16:25:30.271Z,10.50
2022-09-23T16:27:58.660Z,12.85
2022-09-23T16:30:27.890Z,13.73
2022-09-23T16:32:55.354Z,12.75
2022-09-23T16:35:24.540Z,10.70
2022-09-23T16:37:52.852Z,11.40
2022-09-23T16:40:21.585Z,9.25
2022-09-23T16:42:49.815Z,14.20
2022-09-23T16:45:18.309Z,10.18
2022-09-23T16:47:46.805Z,13.05
2022-09-23T16:50:15.957Z,12.13
2022-09-23T16:52:43.680Z,12.32
2022-09-23T16:55:12.319Z,10.50
2022-09-23T16:57:40.322Z,8.57
2022-09-23T17:00:33.126Z,11.32
2022-09-23T17:03:19.184Z,11.27
2022-09-23T17:05:46.863Z,10.13
2022-09-23T17:08:15.340Z,11.77
2022-09-23T17:10:53.782Z,11.20
2022-09-23T17:13:20.580Z,11.48
2022-09-23T17:15:47.414Z,11.82
2022-09-23T17:18:19.340Z,12.25
2022-09-23T17:20:58.187Z,10.13
2022-09-23T17:23:28.748Z,10.65
2022-09-23T17:25:55.987Z,10.68
2022-09-23T17:28:23.073Z,12.63
2022-09-23T17:31:01.882Z,13.63
2022-09-23T17:33:31.072Z,13.23
2022-09-23T17:36:00.306Z,14.43
2022-09-23T17:38:29.314Z,12.35
2022-09-23T17:40:57.580Z,14.88
2022-09-23T17:43:27.299Z,12.02
2022-09-23T17:45:56.589Z,11.73
2022-09-23T17:48:25.533Z,13.93
2022-09-23T17:51:02.516Z,13.70
2022-09-23T17:53:31.948Z,11.93
2022-09-23T17:56:05.535Z,15.93
2022-09-23T17:58:36.506Z,27.08
2022-09-23T18:01:11.257Z,17.85
2022-09-23T18:03:43.981Z,17.48
2022-09-23T18:06:21.215Z,16.33
2022-09-23T18:08:50.475Z,14.93
2022-09-23T18:11:23.458Z,15.40
2022-09-23T18:13:56.936Z,17.20
2022-09-23T18:16:30.574Z,16.08
2022-09-23T18:19:10.587Z,16.92
2022-09-23T18:21:44.882Z,17.33
2022-09-23T18:27:02.378Z,15.02
2022-09-23T18:29:30.451Z,17.35
2022-09-23T18:31:59.571Z,14.27
2022-09-23T18:34:28.029Z,15.57
2022-09-23T18:36:56.775Z,16.58
2022-09-23T18:39:25.029Z,16.08
2022-09-23T18:41:53.197Z,15.32
2022-09-23T18:44:21.829Z,19.73
2022-09-23T18:46:49.787Z,18.58
2022-09-23T18:49:36.317Z,21.27
2022-09-23T18:52:04.912Z,16.38
2022-09-23T18:54:33.102Z,18.15
2022-09-23T18:57:01.041Z,18.75
2022-09-23T18:59:30.146Z,18.83
2022-09-23T19:01:58.657Z,21.42
2022-09-23T19:04:29.621Z,19.83
2022-09-23T19:07:01.278Z,17.70
2022-09-23T19:09:28.909Z,15.52
2022-09-23T19:11:57.890Z,15.63
2022-09-23T19:14:25.332Z,16.55
2022-09-23T19:16:53.192Z,17.48
2022-09-23T19:19:21.582Z,16.45
2022-09-23T19:21:49.565Z,20.73
2022-09-23T19:24:21.255Z,16.58
2022-09-23T19:26:50.911Z,17.48
2022-09-23T19:29:22.496Z,17.98
2022-09-23T19:31:51.696Z,17.52
2022-09-23T19:34:24.202Z,16.58
2022-09-23T19:36:53.270Z,15.68
2022-09-23T19:39:23.343Z,16.25
2022-09-23T19:41:52.970Z,18.45
2022-09-23T19:44:20.982Z,18.48
2022-09-23T19:46:55.282Z,19.65
2022-09-23T19:49:24.911Z,17.75
2022-09-23T19:51:56.300Z,19.67
2022-09-23T19:54:27.681Z,21.52
2022-09-23T19:56:58.334Z,17.45
2022-09-23T19:59:26.794Z,18.58
2022-09-23T20:01:56.709Z,19.42
2022-09-23T20:04:24.720Z,21.60
2022-09-23T20:06:52.438Z,20.83
2022-09-23T20:09:20.616Z,23.08
2022-09-23T20:11:48.741Z,21.95
2022-09-23T20:14:18.257Z,23.52
2022-09-23T20:16:46.811Z,25.83
2022-09-23T20:19:15.201Z,24.42
2022-09-23T20:21:42.866Z,23.33
2022-09-23T20:24:12.342Z,24.10
2022-09-23T20:27:00.275Z,26.80
2022-09-23T20:29:28.554Z,39.10
2022-09-23T20:31:57.411Z,37.60
2022-09-23T20:34:25.156Z,44.65
2022-09-23T20:36:52.961Z,35.42
2022-09-23T20:40:04.632Z,37.47
2022-09-23T20:43:46.884Z,36.15
2022-09-23T20:55:45.683Z,62.72
2022-09-23T21:23:22.548Z,26.10
2022-09-23T21:26:38.547Z,27.83
2022-09-23T21:32:46.285Z,32.42
2022-09-23T21:36:20.361Z,30.25
2022-09-23T21:44:39.910Z,51.85
2022-09-23T21:58:00.876Z,31.08
2022-09-23T22:03:08.515Z,31.90
2022-09-23T22:05:35.254Z,34.38
2022-09-23T22:08:02.334Z,31.80
2022-09-23T22:10:29.317Z,31.50
2022-09-23T22:12:56.304Z,35.35
2022-09-23T22:15:23.509Z,32.90
2022-09-23T22:17:50.573Z,26.70
2022-09-23T22:20:17.504Z,28.85
2022-09-23T22:22:44.547Z,26.15
2022-09-23T22:25:12.602Z,28.02
2022-09-23T22:27:59.591Z,24.40
2022-09-23T22:30:45.114Z,23.45
2022-09-23T22:33:18.733Z,30.15
2022-09-23T22:35:45.594Z,22.15
2022-09-23T22:38:12.500Z,22.08
2022-09-23T22:40:43.180Z,26.95
2022-09-23T22:43:09.975Z,22.83
2022-09-23T22:45:37.645Z,22.08
2022-09-23T22:48:04.755Z,22.20
2022-09-23T22:50:31.503Z,23.40
2022-09-23T22:52:58.677Z,23.65
2022-09-23T22:55:25.739Z,26.92
2022-09-23T22:57:52.761Z,22.15
2022-09-23T23:00:19.764Z,24.38
2022-09-23T23:02:49.782Z,22.67
2022-09-23T23:05:16.790Z,21.58
2022-09-23T23:07:43.781Z,21.98
2022-09-23T23:10:10.767Z,26.77
2022-09-23T23:12:38.672Z,22.83
2022-09-23T23:15:06.092Z,26.73
2022-09-23T23:17:33.379Z,26.13
2022-09-23T23:20:00.447Z,26.20
2022-09-23T23:22:28.611Z,30.10
2022-09-23T23:24:55.568Z,27.42
2022-09-23T23:27:22.765Z,26.27
2022-09-23T23:29:49.679Z,24.52
2022-09-23T23:32:17.172Z,25.02
2022-09-23T23:34:43.956Z,26.30
2022-09-23T23:37:11.195Z,27.30
2022-09-23T23:39:38.017Z,25.73
2022-09-23T23:42:05.133Z,25.42
2022-09-23T23:44:34.500Z,26.20
2022-09-23T23:47:01.821Z,26.83
2022-09-23T23:49:28.773Z,28.20
2022-09-23T23:51:55.923Z,23.63
2022-09-23T23:54:22.715Z,23.67
2022-09-23T23:56:49.574Z,23.80
2022-09-23T23:59:16.507Z,22.20
